sensor_id;sensor_type;location;lat;lon;timestamp;pressure;altitude;pressure_sealevel;temperature;humidity
45357;BME280;31092;51.924;21.448;2024-03-23T00:53:50;98710.31;;;8.27;100.00
45357;BME280;31092;51.924;21.448;2024-03-23T00:56:15;98711.88;;;8.22;100.00
45357;BME280;31092;51.924;21.448;2024-03-23T00:58:41;98640.97;;;7.73;100.00
45357;BME280;31092;51.924;21.448;2024-03-23T01:01:06;98663.31;;;7.95;100.00
45357;BME280;31092;51.924;21.448;2024-03-23T01:03:32;98642.50;;;7.82;100.00
45357;BME280;31092;51.924;21.448;2024-03-23T01:06:01;98661.53;;;8.02;100.00
45357;BME280;31092;51.924;21.448;2024-03-23T01:08:27;98616.28;;;7.78;100.00
45357;BME280;31092;51.924;21.448;2024-03-23T01:10:56;98685.72;;;8.24;100.00
45357;BME280;31092;51.924;21.448;2024-03-23T01:13:22;98671.84;;;8.20;100.00
45357;BME280;31092;51.924;21.448;2024-03-23T01:15:51;98599.56;;;7.76;100.00
45357;BME280;31092;51.924;21.448;2024-03-23T01:18:18;98566.97;;;7.57;100.00
45357;BME280;31092;51.924;21.448;2024-03-23T01:20:44;98576.56;;;7.66;100.00
45357;BME280;31092;51.924;21.448;2024-03-23T01:23:10;98566.44;;;7.62;100.00
45357;BME280;31092;51.924;21.448;2024-03-23T01:25:35;98540.13;;;7.51;100.00
45357;BME280;31092;51.924;21.448;2024-03-23T01:28:01;98554.03;;;7.61;100.00
45357;BME280;31092;51.924;21.448;2024-03-23T01:30:26;98642.13;;;8.22;100.00
45357;BME280;31092;51.924;21.448;2024-03-23T01:32:52;98631.53;;;8.13;100.00
45357;BME280;31092;51.924;21.448;2024-03-23T01:35:17;98616.03;;;8.09;100.00
45357;BME280;31092;51.924;21.448;2024-03-23T01:37:43;98621.63;;;8.14;100.00
45357;BME280;31092;51.924;21.448;2024-03-23T01:40:09;98616.28;;;8.14;100.00
45357;BME280;31092;51.924;21.448;2024-03-23T01:42:34;98602.78;;;8.07;100.00
45357;BME280;31092;51.924;21.448;2024-03-23T01:45:02;98545.31;;;7.74;100.00
45357;BME280;31092;51.924;21.448;2024-03-23T01:47:29;98540.78;;;7.74;100.00
45357;BME280;31092;51.924;21.448;2024-03-23T01:49:54;98600.31;;;8.06;100.00
45357;BME280;31092;51.924;21.448;2024-03-23T01:52:20;98521.88;;;7.61;100.00
45357;BME280;31092;51.924;21.448;2024-03-23T01:54:46;98528.53;;;7.65;100.00
45357;BME280;31092;51.924;21.448;2024-03-23T01:57:11;98560.91;;;7.85;100.00
45357;BME280;31092;51.924;21.448;2024-03-23T01:59:39;98518.00;;;7.63;100.00
45357;BME280;31092;51.924;21.448;2024-03-23T02:02:05;98590.69;;;8.11;100.00
45357;BME280;31092;51.924;21.448;2024-03-23T02:04:30;98498.25;;;7.50;100.00
45357;BME280;31092;51.924;21.448;2024-03-23T02:06:56;98504.53;;;7.57;100.00
45357;BME280;31092;51.924;21.448;2024-03-23T02:09:22;98538.75;;;7.76;100.00
45357;BME280;31092;51.924;21.448;2024-03-23T02:11:47;98603.00;;;8.06;100.00
45357;BME280;31092;51.924;21.448;2024-03-23T02:14:13;98578.41;;;8.02;100.00
45357;BME280;31092;51.924;21.448;2024-03-23T02:16:38;98596.69;;;8.13;100.00
45357;BME280;31092;51.924;21.448;2024-03-23T02:19:04;98596.22;;;8.10;100.00
45357;BME280;31092;51.924;21.448;2024-03-23T02:21:29;98503.97;;;7.61;100.00
45357;BME280;31092;51.924;21.448;2024-03-23T02:23:59;98519.34;;;7.74;100.00
45357;BME280;31092;51.924;21.448;2024-03-23T02:26:24;98516.88;;;7.73;100.00
45357;BME280;31092;51.924;21.448;2024-03-23T02:28:50;98498.78;;;7.60;100.00
45357;BME280;31092;51.924;21.448;2024-03-23T02:31:15;98476.84;;;7.50;100.00
45357;BME280;31092;51.924;21.448;2024-03-23T02:33:41;98577.31;;;8.18;100.00
45357;BME280;31092;51.924;21.448;2024-03-23T02:36:07;98487.31;;;7.66;100.00
45357;BME280;31092;51.924;21.448;2024-03-23T02:38:32;98486.13;;;7.68;100.00
45357;BME280;31092;51.924;21.448;2024-03-23T02:41:03;98493.22;;;7.76;100.00
45357;BME280;31092;51.924;21.448;2024-03-23T02:43:29;98539.91;;;8.10;100.00
45357;BME280;31092;51.924;21.448;2024-03-23T02:45:54;98532.19;;;8.00;100.00
45357;BME280;31092;51.924;21.448;2024-03-23T02:48:20;98469.97;;;7.62;100.00
45357;BME280;31092;51.924;21.448;2024-03-23T02:50:45;98498.19;;;7.79;100.00
45357;BME280;31092;51.924;21.448;2024-03-23T02:53:11;98549.81;;;8.09;100.00
45357;BME280;31092;51.924;21.448;2024-03-23T02:55:36;98540.31;;;8.07;100.00
45357;BME280;31092;51.924;21.448;2024-03-23T02:58:02;98553.59;;;8.15;100.00
45357;BME280;31092;51.924;21.448;2024-03-23T03:00:28;98552.56;;;8.16;100.00
45357;BME280;31092;51.924;21.448;2024-03-23T03:02:54;98440.16;;;7.50;100.00
45357;BME280;31092;51.924;21.448;2024-03-23T03:05:19;98517.56;;;8.03;100.00
45357;BME280;31092;51.924;21.448;2024-03-23T03:07:45;98506.63;;;7.98;100.00
45357;BME280;31092;51.924;21.448;2024-03-23T03:10:10;98451.22;;;7.62;100.00
45357;BME280;31092;51.924;21.448;2024-03-23T03:12:45;98448.53;;;7.62;100.00
45357;BME280;31092;51.924;21.448;2024-03-23T03:15:14;98453.13;;;7.68;100.00
45357;BME280;31092;51.924;21.448;2024-03-23T03:17:39;98501.50;;;8.03;100.00
45357;BME280;31092;51.924;21.448;2024-03-23T03:20:05;98522.03;;;8.17;100.00
45357;BME280;31092;51.924;21.448;2024-03-23T03:22:31;98512.66;;;8.06;100.00
45357;BME280;31092;51.924;21.448;2024-03-23T03:24:57;98493.22;;;7.98;100.00
45357;BME280;31092;51.924;21.448;2024-03-23T03:27:22;98434.13;;;7.63;100.00
45357;BME280;31092;51.924;21.448;2024-03-23T03:29:48;98426.06;;;7.63;100.00
45357;BME280;31092;51.924;21.448;2024-03-23T03:32:14;98435.22;;;7.68;100.00
45357;BME280;31092;51.924;21.448;2024-03-23T03:34:39;98458.03;;;7.86;100.00
45357;BME280;31092;51.924;21.448;2024-03-23T03:37:05;98453.09;;;7.89;100.00
45357;BME280;31092;51.924;21.448;2024-03-23T03:39:30;98487.38;;;8.15;100.00
45357;BME280;31092;51.924;21.448;2024-03-23T03:41:56;98400.13;;;7.63;100.00
45357;BME280;31092;51.924;21.448;2024-03-23T03:44:22;98376.06;;;7.49;100.00
45357;BME280;31092;51.924;21.448;2024-03-23T03:46:47;98476.41;;;8.10;100.00
45357;BME280;31092;51.924;21.448;2024-03-23T03:49:13;98373.78;;;7.46;100.00
45357;BME280;31092;51.924;21.448;2024-03-23T03:51:38;98475.50;;;8.03;100.00
45357;BME280;31092;51.924;21.448;2024-03-23T03:54:04;98468.25;;;7.97;100.00
45357;BME280;31092;51.924;21.448;2024-03-23T03:56:29;98465.31;;;7.92;100.00
45357;BME280;31092;51.924;21.448;2024-03-23T03:58:55;98449.81;;;7.87;100.00
45357;BME280;31092;51.924;21.448;2024-03-23T04:01:20;98460.97;;;7.91;100.00
45357;BME280;31092;51.924;21.448;2024-03-23T04:03:46;98383.00;;;7.43;100.00
45357;BME280;31092;51.924;21.448;2024-03-23T04:06:11;98425.75;;;7.73;100.00
45357;BME280;31092;51.924;21.448;2024-03-23T04:08:37;98457.13;;;8.00;100.00
45357;BME280;31092;51.924;21.448;2024-03-23T04:11:03;98485.47;;;8.09;100.00
45357;BME280;31092;51.924;21.448;2024-03-23T04:13:28;98470.53;;;8.00;100.00
45357;BME280;31092;51.924;21.448;2024-03-23T04:15:55;98397.94;;;7.52;100.00
45357;BME280;31092;51.924;21.448;2024-03-23T04:18:21;98407.13;;;7.64;100.00
45357;BME280;31092;51.924;21.448;2024-03-23T04:20:48;98425.75;;;7.73;100.00
45357;BME280;31092;51.924;21.448;2024-03-23T04:23:13;98406.75;;;7.67;100.00
45357;BME280;31092;51.924;21.448;2024-03-23T04:25:39;98464.34;;;8.00;100.00
45357;BME280;31092;51.924;21.448;2024-03-23T04:28:04;98445.72;;;7.91;100.00
45357;BME280;31092;51.924;21.448;2024-03-23T04:30:30;98376.97;;;7.56;100.00
45357;BME280;31092;51.924;21.448;2024-03-23T04:32:57;98461.53;;;8.08;100.00
45357;BME280;31092;51.924;21.448;2024-03-23T04:35:24;98426.19;;;7.98;100.00
45357;BME280;31092;51.924;21.448;2024-03-23T04:37:53;98451.00;;;8.06;100.00
45357;BME280;31092;51.924;21.448;2024-03-23T04:40:21;98340.16;;;7.43;100.00
45357;BME280;31092;51.924;21.448;2024-03-23T04:42:46;98401.72;;;7.79;100.00
45357;BME280;31092;51.924;21.448;2024-03-23T04:45:24;98379.94;;;7.67;100.00
45357;BME280;31092;51.924;21.448;2024-03-23T04:47:55;98393.84;;;7.78;100.00
45357;BME280;31092;51.924;21.448;2024-03-23T04:50:21;98373.31;;;7.63;100.00
45357;BME280;31092;51.924;21.448;2024-03-23T04:52:46;98373.59;;;7.68;100.00
45357;BME280;31092;51.924;21.448;2024-03-23T04:55:12;98290.53;;;7.19;100.00
45357;BME280;31092;51.924;21.448;2024-03-23T04:57:39;98399.94;;;7.93;100.00
45357;BME280;31092;51.924;21.448;2024-03-23T05:00:05;98357.50;;;7.68;100.00
45357;BME280;31092;51.924;21.448;2024-03-23T05:02:42;98353.97;;;7.68;100.00
45357;BME280;31092;51.924;21.448;2024-03-23T05:05:08;98331.41;;;7.56;100.00
45357;BME280;31092;51.924;21.448;2024-03-23T05:07:33;98408.09;;;8.06;100.00
45357;BME280;31092;51.924;21.448;2024-03-23T05:09:59;98337.00;;;7.61;100.00
45357;BME280;31092;51.924;21.448;2024-03-23T05:12:24;98401.41;;;7.96;100.00
45357;BME280;31092;51.924;21.448;2024-03-23T05:14:50;98326.72;;;7.58;100.00
45357;BME280;31092;51.924;21.448;2024-03-23T05:17:16;98327.97;;;7.62;100.00
45357;BME280;31092;51.924;21.448;2024-03-23T05:19:42;98298.97;;;7.44;100.00
45357;BME280;31092;51.924;21.448;2024-03-23T05:22:07;98383.03;;;7.92;100.00
45357;BME280;31092;51.924;21.448;2024-03-23T05:24:33;98334.16;;;7.62;100.00
45357;BME280;31092;51.924;21.448;2024-03-23T05:26:58;98379.34;;;7.94;100.00
45357;BME280;31092;51.924;21.448;2024-03-23T05:29:24;98414.59;;;8.19;100.00
45357;BME280;31092;51.924;21.448;2024-03-23T05:31:51;98347.69;;;7.76;100.00
45357;BME280;31092;51.924;21.448;2024-03-23T05:34:17;98326.75;;;7.64;100.00
45357;BME280;31092;51.924;21.448;2024-03-23T05:36:43;98395.13;;;8.10;100.00
45357;BME280;31092;51.924;21.448;2024-03-23T05:39:09;98257.09;;;7.36;100.00
45357;BME280;31092;51.924;21.448;2024-03-23T05:41:34;98330.63;;;7.83;100.00
45357;BME280;31092;51.924;21.448;2024-03-23T05:44:02;98332.47;;;7.83;100.00
45357;BME280;31092;51.924;21.448;2024-03-23T05:46:28;98370.63;;;8.13;100.00
45357;BME280;31092;51.924;21.448;2024-03-23T05:48:53;98383.63;;;8.16;100.00
45357;BME280;31092;51.924;21.448;2024-03-23T05:51:39;98298.75;;;7.67;100.00
45357;BME280;31092;51.924;21.448;2024-03-23T05:54:04;98393.16;;;8.25;100.00
45357;BME280;31092;51.924;21.448;2024-03-23T05:56:31;98376.19;;;8.11;100.00
45357;BME280;31092;51.924;21.448;2024-03-23T05:58:56;98380.06;;;8.09;100.00
45357;BME280;31092;51.924;21.448;2024-03-23T06:01:22;98398.16;;;8.28;100.00
45357;BME280;31092;51.924;21.448;2024-03-23T06:03:48;98365.47;;;8.11;100.00
45357;BME280;31092;51.924;21.448;2024-03-23T06:06:13;98368.53;;;8.08;100.00
45357;BME280;31092;51.924;21.448;2024-03-23T06:08:39;98411.81;;;8.33;100.00
45357;BME280;31092;51.924;21.448;2024-03-23T06:11:05;98397.97;;;8.30;100.00
45357;BME280;31092;51.924;21.448;2024-03-23T06:13:33;98388.50;;;8.34;100.00
45357;BME280;31092;51.924;21.448;2024-03-23T06:16:01;98375.00;;;8.21;100.00
45357;BME280;31092;51.924;21.448;2024-03-23T06:18:26;98297.47;;;7.91;100.00
45357;BME280;31092;51.924;21.448;2024-03-23T06:20:53;98363.09;;;8.30;100.00
45357;BME280;31092;51.924;21.448;2024-03-23T06:23:18;98362.28;;;8.29;100.00
45357;BME280;31092;51.924;21.448;2024-03-23T06:25:46;98283.00;;;7.85;100.00
45357;BME280;31092;51.924;21.448;2024-03-23T06:28:12;98365.56;;;8.31;100.00
45357;BME280;31092;51.924;21.448;2024-03-23T06:30:37;98288.34;;;7.85;100.00
45357;BME280;31092;51.924;21.448;2024-03-23T06:33:03;98339.91;;;8.15;100.00
45357;BME280;31092;51.924;21.448;2024-03-23T06:35:28;98291.03;;;7.85;100.00
45357;BME280;31092;51.924;21.448;2024-03-23T06:37:54;98309.69;;;8.00;100.00
45357;BME280;31092;51.924;21.448;2024-03-23T06:40:19;98263.97;;;7.74;100.00
45357;BME280;31092;51.924;21.448;2024-03-23T06:42:45;98374.69;;;8.37;100.00
45357;BME280;31092;51.924;21.448;2024-03-23T06:45:11;98341.41;;;8.25;100.00
45357;BME280;31092;51.924;21.448;2024-03-23T06:47:36;98266.09;;;7.85;100.00
45357;BME280;31092;51.924;21.448;2024-03-23T06:50:03;98342.84;;;8.27;100.00
45357;BME280;31092;51.924;21.448;2024-03-23T06:52:29;98331.06;;;8.22;100.00
45357;BME280;31092;51.924;21.448;2024-03-23T06:54:55;98354.97;;;8.45;100.00
45357;BME280;31092;51.924;21.448;2024-03-23T06:57:21;98282.06;;;8.00;100.00
45357;BME280;31092;51.924;21.448;2024-03-23T06:59:47;98342.06;;;8.33;100.00
45357;BME280;31092;51.924;21.448;2024-03-23T07:02:12;98283.53;;;8.02;100.00
45357;BME280;31092;51.924;21.448;2024-03-23T07:04:38;98286.63;;;8.06;100.00
45357;BME280;31092;51.924;21.448;2024-03-23T07:07:05;98321.41;;;8.27;100.00
45357;BME280;31092;51.924;21.448;2024-03-23T07:09:30;98358.28;;;8.47;100.00
45357;BME280;31092;51.924;21.448;2024-03-23T07:11:57;98339.19;;;8.35;100.00
45357;BME280;31092;51.924;21.448;2024-03-23T07:14:23;98272.13;;;7.94;100.00
45357;BME280;31092;51.924;21.448;2024-03-23T07:16:50;98280.63;;;8.04;100.00
45357;BME280;31092;51.924;21.448;2024-03-23T07:19:16;98293.94;;;8.19;100.00
45357;BME280;31092;51.924;21.448;2024-03-23T07:21:45;98326.66;;;8.42;100.00
45357;BME280;31092;51.924;21.448;2024-03-23T07:24:11;98249.28;;;7.98;100.00
45357;BME280;31092;51.924;21.448;2024-03-23T07:26:37;98253.44;;;8.07;100.00
45357;BME280;31092;51.924;21.448;2024-03-23T07:29:04;98266.69;;;8.15;100.00
45357;BME280;31092;51.924;21.448;2024-03-23T07:31:29;98264.00;;;8.22;100.00
45357;BME280;31092;51.924;21.448;2024-03-23T07:33:55;98326.97;;;8.60;100.00
45357;BME280;31092;51.924;21.448;2024-03-23T07:36:21;98339.16;;;8.63;100.00
45357;BME280;31092;51.924;21.448;2024-03-23T07:38:47;98297.19;;;8.49;100.00
45357;BME280;31092;51.924;21.448;2024-03-23T07:41:19;98215.47;;;8.03;100.00
45357;BME280;31092;51.924;21.448;2024-03-23T07:43:46;98267.81;;;8.34;100.00
45357;BME280;31092;51.924;21.448;2024-03-23T07:46:12;98251.22;;;8.17;100.00
45357;BME280;31092;51.924;21.448;2024-03-23T07:48:38;98237.63;;;8.19;100.00
45357;BME280;31092;51.924;21.448;2024-03-23T07:51:09;98244.03;;;8.24;100.00
45357;BME280;31092;51.924;21.448;2024-03-23T07:53:36;98240.94;;;8.27;100.00
45357;BME280;31092;51.924;21.448;2024-03-23T07:56:06;98223.16;;;8.13;100.00
45357;BME280;31092;51.924;21.448;2024-03-23T07:58:32;98289.81;;;8.57;100.00
45357;BME280;31092;51.924;21.448;2024-03-23T08:01:09;98301.41;;;8.65;100.00
45357;BME280;31092;51.924;21.448;2024-03-23T08:03:36;98256.75;;;8.44;100.00
45357;BME280;31092;51.924;21.448;2024-03-23T08:06:14;98310.28;;;8.65;100.00
45357;BME280;31092;51.924;21.448;2024-03-23T08:08:41;98207.88;;;8.13;100.00
45357;BME280;31092;51.924;21.448;2024-03-23T08:11:08;98293.34;;;8.65;100.00
45357;BME280;31092;51.924;21.448;2024-03-23T08:13:34;98180.16;;;7.93;100.00
45357;BME280;31092;51.924;21.448;2024-03-23T08:16:01;98163.03;;;7.87;100.00
45357;BME280;31092;51.924;21.448;2024-03-23T08:18:27;98287.56;;;8.68;100.00
45357;BME280;31092;51.924;21.448;2024-03-23T08:21:00;98268.97;;;8.59;100.00
45357;BME280;31092;51.924;21.448;2024-03-23T08:23:34;98225.38;;;8.44;100.00
45357;BME280;31092;51.924;21.448;2024-03-23T08:26:05;98187.72;;;8.24;100.00
45357;BME280;31092;51.924;21.448;2024-03-23T08:28:32;98230.75;;;8.51;100.00
45357;BME280;31092;51.924;21.448;2024-03-23T08:31:01;98179.47;;;8.19;100.00
45357;BME280;31092;51.924;21.448;2024-03-23T08:33:27;98252.28;;;8.71;100.00
45357;BME280;31092;51.924;21.448;2024-03-23T08:38:23;98240.31;;;8.73;100.00
45357;BME280;31092;51.924;21.448;2024-03-23T08:41:00;98184.75;;;8.54;100.00
45357;BME280;31092;51.924;21.448;2024-03-23T08:43:26;98157.66;;;8.42;100.00
45357;BME280;31092;51.924;21.448;2024-03-23T08:45:52;98149.22;;;8.45;100.00
45357;BME280;31092;51.924;21.448;2024-03-23T08:48:19;98224.84;;;8.95;100.00
45357;BME280;31092;51.924;21.448;2024-03-23T08:51:05;98225.28;;;9.05;100.00
45357;BME280;31092;51.924;21.448;2024-03-23T08:53:31;98199.25;;;8.99;100.00
45357;BME280;31092;51.924;21.448;2024-03-23T08:55:57;98093.31;;;8.49;100.00
45357;BME280;31092;51.924;21.448;2024-03-23T08:58:24;98207.94;;;9.28;100.00
45357;BME280;31092;51.924;21.448;2024-03-23T09:00:55;98114.19;;;8.86;100.00
45357;BME280;31092;51.924;21.448;2024-03-23T09:03:26;98176.75;;;9.40;100.00
45357;BME280;31092;51.924;21.448;2024-03-23T09:05:52;98096.81;;;8.96;100.00
45357;BME280;31092;51.924;21.448;2024-03-23T09:08:18;98125.06;;;9.31;100.00
45357;BME280;31092;51.924;21.448;2024-03-23T09:10:44;98144.50;;;9.47;100.00
45357;BME280;31092;51.924;21.448;2024-03-23T09:13:10;98142.22;;;9.50;100.00
45357;BME280;31092;51.924;21.448;2024-03-23T09:15:37;97927.50;;;9.35;100.00
45357;BME280;31092;51.924;21.448;2024-03-23T09:18:03;97975.91;;;9.67;100.00
45357;BME280;31092;51.924;21.448;2024-03-23T09:20:32;97951.34;;;9.64;100.00
45357;BME280;31092;51.924;21.448;2024-03-23T09:22:58;97951.94;;;9.72;100.00
45357;BME280;31092;51.924;21.448;2024-03-23T09:25:24;97932.72;;;9.69;100.00
45357;BME280;31092;51.924;21.448;2024-03-23T09:27:50;97864.16;;;9.21;100.00
45357;BME280;31092;51.924;21.448;2024-03-23T09:30:15;97938.13;;;9.94;100.00
45357;BME280;31092;51.924;21.448;2024-03-23T09:32:42;97865.22;;;9.52;100.00
45357;BME280;31092;51.924;21.448;2024-03-23T09:35:08;97926.81;;;10.10;100.00
45357;BME280;31092;51.924;21.448;2024-03-23T09:37:34;97850.41;;;10.43;100.00
45357;BME280;31092;51.924;21.448;2024-03-23T09:39:59;97816.59;;;10.84;100.00
45357;BME280;31092;51.924;21.448;2024-03-23T09:42:25;97806.66;;;10.84;100.00
45357;BME280;31092;51.924;21.448;2024-03-23T09:44:51;97799.00;;;10.81;100.00
45357;BME280;31092;51.924;21.448;2024-03-23T09:47:17;97847.63;;;11.05;100.00
45357;BME280;31092;51.924;21.448;2024-03-23T09:49:43;97855.69;;;11.05;100.00
45357;BME280;31092;51.924;21.448;2024-03-23T09:52:10;97779.69;;;10.54;100.00
45357;BME280;31092;51.924;21.448;2024-03-23T09:54:35;97761.97;;;10.65;100.00
45357;BME280;31092;51.924;21.448;2024-03-23T09:57:01;97784.00;;;11.34;100.00
45357;BME280;31092;51.924;21.448;2024-03-23T09:59:29;97755.16;;;11.34;100.00
45357;BME280;31092;51.924;21.448;2024-03-23T10:01:54;97798.88;;;12.02;100.00
45357;BME280;31092;51.924;21.448;2024-03-23T10:04:37;97762.72;;;12.26;100.00
45357;BME280;31092;51.924;21.448;2024-03-23T10:07:12;97789.84;;;12.31;100.00
45357;BME280;31092;51.924;21.448;2024-03-23T10:09:39;97769.06;;;12.20;100.00
45357;BME280;31092;51.924;21.448;2024-03-23T10:12:11;97777.50;;;12.23;100.00
45357;BME280;31092;51.924;21.448;2024-03-23T10:14:39;97785.69;;;12.40;100.00
45357;BME280;31092;51.924;21.448;2024-03-23T10:17:17;97791.16;;;12.69;100.00
45357;BME280;31092;51.924;21.448;2024-03-23T10:19:47;97693.03;;;12.23;100.00
45357;BME280;31092;51.924;21.448;2024-03-23T10:22:20;97694.56;;;12.19;100.00
45357;BME280;31092;51.924;21.448;2024-03-23T10:24:46;97693.66;;;12.13;100.00
45357;BME280;31092;51.924;21.448;2024-03-23T10:27:16;97719.16;;;12.46;100.00
45357;BME280;31092;51.924;21.448;2024-03-23T10:29:49;97667.25;;;12.15;100.00
45357;BME280;31092;51.924;21.448;2024-03-23T10:32:18;97660.19;;;12.26;100.00
45357;BME280;31092;51.924;21.448;2024-03-23T10:34:44;97661.66;;;12.45;100.00
45357;BME280;31092;51.924;21.448;2024-03-23T10:37:10;97716.34;;;12.69;100.00
45357;BME280;31092;51.924;21.448;2024-03-23T10:39:38;97698.38;;;12.75;100.00
45357;BME280;31092;51.924;21.448;2024-03-23T10:44:31;97687.56;;;13.21;100.00
45357;BME280;31092;51.924;21.448;2024-03-23T10:46:58;97677.97;;;13.80;100.00
45357;BME280;31092;51.924;21.448;2024-03-23T10:49:28;97649.53;;;14.00;100.00
45357;BME280;31092;51.924;21.448;2024-03-23T10:52:13;97645.75;;;14.23;100.00
45357;BME280;31092;51.924;21.448;2024-03-23T10:54:41;97660.91;;;14.46;100.00
45357;BME280;31092;51.924;21.448;2024-03-23T10:57:09;97635.31;;;14.53;100.00
45357;BME280;31092;51.924;21.448;2024-03-23T10:59:37;97643.13;;;14.50;100.00
45357;BME280;31092;51.924;21.448;2024-03-23T11:02:03;97690.03;;;14.55;100.00
45357;BME280;31092;51.924;21.448;2024-03-23T11:04:30;97770.47;;;14.16;100.00
45357;BME280;31092;51.924;21.448;2024-03-23T11:06:57;97775.59;;;14.34;100.00
45357;BME280;31092;51.924;21.448;2024-03-23T11:15:10;97749.19;;;14.25;100.00
45357;BME280;31092;51.924;21.448;2024-03-23T11:17:36;97781.56;;;14.36;100.00
45357;BME280;31092;51.924;21.448;2024-03-23T11:20:03;97862.94;;;14.47;100.00
45357;BME280;31092;51.924;21.448;2024-03-23T11:25:21;97958.22;;;14.94;100.00
45357;BME280;31092;51.924;21.448;2024-03-23T11:27:48;97941.97;;;14.94;100.00
45357;BME280;31092;51.924;21.448;2024-03-23T11:30:16;97893.13;;;14.72;100.00
45357;BME280;31092;51.924;21.448;2024-03-23T11:32:46;97899.50;;;14.83;100.00
45357;BME280;31092;51.924;21.448;2024-03-23T11:38:17;97949.38;;;14.48;100.00
45357;BME280;31092;51.924;21.448;2024-03-23T11:40:49;98037.13;;;14.98;100.00
45357;BME280;31092;51.924;21.448;2024-03-23T11:43:19;98000.13;;;14.70;100.00
45357;BME280;31092;51.924;21.448;2024-03-23T11:45:50;98064.38;;;15.08;100.00
45357;BME280;31092;51.924;21.448;2024-03-23T11:48:21;97999.75;;;14.83;100.00
45357;BME280;31092;51.924;21.448;2024-03-23T11:50:49;98044.25;;;15.21;100.00
45357;BME280;31092;51.924;21.448;2024-03-23T11:53:20;97991.34;;;14.63;100.00
45357;BME280;31092;51.924;21.448;2024-03-23T11:58:20;98050.00;;;15.24;100.00
45357;BME280;31092;51.924;21.448;2024-03-23T12:03:16;98070.75;;;15.36;100.00
45357;BME280;31092;51.924;21.448;2024-03-23T12:05:49;98008.63;;;15.12;100.00
45357;BME280;31092;51.924;21.448;2024-03-23T12:11:05;98088.34;;;15.33;100.00
45357;BME280;31092;51.924;21.448;2024-03-23T12:13:32;98052.72;;;15.07;100.00
45357;BME280;31092;51.924;21.448;2024-03-23T12:16:16;98116.56;;;15.71;100.00
45357;BME280;31092;51.924;21.448;2024-03-23T12:18:43;98117.72;;;15.75;100.00
45357;BME280;31092;51.924;21.448;2024-03-23T12:21:09;98137.53;;;15.75;100.00
45357;BME280;31092;51.924;21.448;2024-03-23T12:23:35;98138.75;;;15.85;100.00
45357;BME280;31092;51.924;21.448;2024-03-23T12:26:01;98084.84;;;15.54;100.00
45357;BME280;31092;51.924;21.448;2024-03-23T12:28:27;98147.91;;;16.00;100.00
45357;BME280;31092;51.924;21.448;2024-03-23T12:30:54;98124.91;;;15.86;100.00
45357;BME280;31092;51.924;21.448;2024-03-23T12:33:20;98171.91;;;16.09;100.00
45357;BME280;31092;51.924;21.448;2024-03-23T12:35:47;98168.06;;;16.04;100.00
45357;BME280;31092;51.924;21.448;2024-03-23T12:38:12;98177.72;;;16.17;100.00
45357;BME280;31092;51.924;21.448;2024-03-23T12:40:38;98163.06;;;16.18;100.00
45357;BME280;31092;51.924;21.448;2024-03-23T12:43:03;98172.41;;;16.27;100.00
45357;BME280;31092;51.924;21.448;2024-03-23T12:45:29;98107.56;;;16.09;100.00
45357;BME280;31092;51.924;21.448;2024-03-23T12:47:55;98160.16;;;16.25;100.00
45357;BME280;31092;51.924;21.448;2024-03-23T12:50:20;98114.50;;;15.78;100.00
45357;BME280;31092;51.924;21.448;2024-03-23T12:52:47;98160.59;;;15.95;100.00
45357;BME280;31092;51.924;21.448;2024-03-23T12:55:12;98110.22;;;15.82;100.00
45357;BME280;31092;51.924;21.448;2024-03-23T12:57:38;98164.19;;;16.44;100.00
45357;BME280;31092;51.924;21.448;2024-03-23T13:00:04;98140.06;;;16.75;100.00
45357;BME280;31092;51.924;21.448;2024-03-23T13:02:31;98171.44;;;16.61;100.00
45357;BME280;31092;51.924;21.448;2024-03-23T13:04:57;98220.97;;;16.68;100.00
45357;BME280;31092;51.924;21.448;2024-03-23T13:07:23;98225.75;;;16.34;100.00
45357;BME280;31092;51.924;21.448;2024-03-23T13:09:52;98194.25;;;15.94;100.00
45357;BME280;31092;51.924;21.448;2024-03-23T13:12:21;98202.88;;;15.69;100.00
45357;BME280;31092;51.924;21.448;2024-03-23T13:14:47;98166.97;;;15.33;100.00
45357;BME280;31092;51.924;21.448;2024-03-23T13:17:13;98188.19;;;15.36;100.00
45357;BME280;31092;51.924;21.448;2024-03-23T13:19:39;98075.81;;;14.76;100.00
45357;BME280;31092;51.924;21.448;2024-03-23T13:22:05;98120.16;;;15.04;100.00
45357;BME280;31092;51.924;21.448;2024-03-23T13:24:31;98143.97;;;15.19;100.00
45357;BME280;31092;51.924;21.448;2024-03-23T13:26:57;98148.91;;;15.22;100.00
45357;BME280;31092;51.924;21.448;2024-03-23T13:29:23;98077.47;;;14.77;100.00
45357;BME280;31092;51.924;21.448;2024-03-23T13:31:50;98126.16;;;14.89;100.00
45357;BME280;31092;51.924;21.448;2024-03-23T13:34:16;98062.63;;;14.51;100.00
45357;BME280;31092;51.924;21.448;2024-03-23T13:36:45;98106.19;;;14.78;100.00
45357;BME280;31092;51.924;21.448;2024-03-23T13:39:12;98105.78;;;14.87;100.00
45357;BME280;31092;51.924;21.448;2024-03-23T13:41:39;98084.19;;;14.92;100.00
45357;BME280;31092;51.924;21.448;2024-03-23T13:44:08;98071.53;;;15.14;100.00
45357;BME280;31092;51.924;21.448;2024-03-23T13:46:35;98065.09;;;15.37;100.00
45357;BME280;31092;51.924;21.448;2024-03-23T13:49:01;97992.59;;;15.11;100.00
45357;BME280;31092;51.924;21.448;2024-03-23T13:51:27;97980.66;;;15.12;100.00
45357;BME280;31092;51.924;21.448;2024-03-23T13:53:56;98040.59;;;15.71;100.00
45357;BME280;31092;51.924;21.448;2024-03-23T13:56:25;97967.81;;;15.46;100.00
45357;BME280;31092;51.924;21.448;2024-03-23T13:58:50;98021.56;;;15.66;100.00
45357;BME280;31092;51.924;21.448;2024-03-23T14:01:16;97968.38;;;15.26;100.00
45357;BME280;31092;51.924;21.448;2024-03-23T14:03:43;98033.94;;;15.62;100.00